sensor_id;sensor_type;location;lat;lon;timestamp;pressure;altitude;pressure_sealevel;temperature;humidity
58771;BME280;44539;42.962;1.596;2022-12-24T08:09:43;97258.84;;;2.48;100.00
58771;BME280;44539;42.962;1.596;2022-12-24T08:12:10;97247.25;;;2.62;100.00
58771;BME280;44539;42.962;1.596;2022-12-24T08:14:35;97236.31;;;2.57;100.00
58771;BME280;44539;42.962;1.596;2022-12-24T08:17:00;97240.91;;;2.64;100.00
58771;BME280;44539;42.962;1.596;2022-12-24T08:19:26;97239.09;;;2.76;100.00
58771;BME280;44539;42.962;1.596;2022-12-24T08:21:51;97229.91;;;2.82;100.00
58771;BME280;44539;42.962;1.596;2022-12-24T08:24:17;97237.97;;;2.90;100.00
58771;BME280;44539;42.962;1.596;2022-12-24T08:26:42;97235.19;;;3.03;100.00
58771;BME280;44539;42.962;1.596;2022-12-24T08:29:08;97233.97;;;3.07;100.00
58771;BME280;44539;42.962;1.596;2022-12-24T08:31:33;97237.97;;;2.90;100.00
58771;BME280;44539;42.962;1.596;2022-12-24T08:34:03;97243.22;;;2.90;100.00
58771;BME280;44539;42.962;1.596;2022-12-24T08:36:29;97233.19;;;2.95;100.00
58771;BME280;44539;42.962;1.596;2022-12-24T08:38:54;97242.31;;;3.12;100.00
58771;BME280;44539;42.962;1.596;2022-12-24T08:41:20;97240.94;;;3.18;100.00
58771;BME280;44539;42.962;1.596;2022-12-24T08:43:45;97241.66;;;3.20;100.00
58771;BME280;44539;42.962;1.596;2022-12-24T08:46:11;97236.69;;;3.38;100.00
58771;BME280;44539;42.962;1.596;2022-12-24T08:48:36;97235.50;;;3.52;100.00
58771;BME280;44539;42.962;1.596;2022-12-24T08:51:07;97229.72;;;3.48;100.00
58771;BME280;44539;42.962;1.596;2022-12-24T08:53:32;97231.16;;;3.62;100.00
58771;BME280;44539;42.962;1.596;2022-12-24T08:56:03;97239.41;;;3.78;100.00
58771;BME280;44539;42.962;1.596;2022-12-24T08:58:30;97239.22;;;3.70;100.00
58771;BME280;44539;42.962;1.596;2022-12-24T09:00:57;97239.09;;;3.72;100.00
58771;BME280;44539;42.962;1.596;2022-12-24T09:03:22;97243.25;;;3.74;100.00
58771;BME280;44539;42.962;1.596;2022-12-24T09:05:47;97250.81;;;3.88;100.00
58771;BME280;44539;42.962;1.596;2022-12-24T09:08:13;97246.59;;;4.07;100.00
58771;BME280;44539;42.962;1.596;2022-12-24T09:10:38;97251.78;;;4.28;100.00
58771;BME280;44539;42.962;1.596;2022-12-24T09:13:04;97244.31;;;4.33;100.00
58771;BME280;44539;42.962;1.596;2022-12-24T09:15:29;97250.38;;;4.24;100.00
58771;BME280;44539;42.962;1.596;2022-12-24T09:17:55;97250.38;;;4.24;100.00
58771;BME280;44539;42.962;1.596;2022-12-24T09:20:20;97249.44;;;4.35;100.00
58771;BME280;44539;42.962;1.596;2022-12-24T09:22:46;97252.53;;;4.40;100.00
58771;BME280;44539;42.962;1.596;2022-12-24T09:25:11;97248.09;;;4.40;100.00
58771;BME280;44539;42.962;1.596;2022-12-24T09:27:37;97253.47;;;4.39;100.00
58771;BME280;44539;42.962;1.596;2022-12-24T09:30:03;97248.69;;;4.54;100.00
58771;BME280;44539;42.962;1.596;2022-12-24T09:32:29;97242.06;;;4.59;100.00
58771;BME280;44539;42.962;1.596;2022-12-24T09:34:54;97249.53;;;4.64;100.00
58771;BME280;44539;42.962;1.596;2022-12-24T09:37:20;97242.78;;;4.81;100.00
58771;BME280;44539;42.962;1.596;2022-12-24T09:39:45;97241.69;;;4.93;100.00
58771;BME280;44539;42.962;1.596;2022-12-24T09:42:36;97245.72;;;4.97;100.00
58771;BME280;44539;42.962;1.596;2022-12-24T09:45:07;97244.72;;;4.98;100.00
58771;BME280;44539;42.962;1.596;2022-12-24T09:47:43;97235.16;;;5.07;100.00
58771;BME280;44539;42.962;1.596;2022-12-24T09:50:30;97236.25;;;5.14;100.00
58771;BME280;44539;42.962;1.596;2022-12-24T09:53:02;97231.00;;;5.24;100.00
58771;BME280;44539;42.962;1.596;2022-12-24T09:55:32;97233.22;;;5.38;100.00
58771;BME280;44539;42.962;1.596;2022-12-24T09:58:01;97225.31;;;5.38;100.00
58771;BME280;44539;42.962;1.596;2022-12-24T10:00:32;97235.00;;;5.47;100.00
58771;BME280;44539;42.962;1.596;2022-12-24T10:02:59;97236.09;;;5.55;100.00
58771;BME280;44539;42.962;1.596;2022-12-24T10:05:37;97235.00;;;5.57;100.00
58771;BME280;44539;42.962;1.596;2022-12-24T10:10:53;97225.53;;;5.74;100.00
58771;BME280;44539;42.962;1.596;2022-12-24T10:13:30;97227.72;;;5.79;100.00
58771;BME280;44539;42.962;1.596;2022-12-24T10:16:15;97235.38;;;5.72;100.00
58771;BME280;44539;42.962;1.596;2022-12-24T10:24:27;97222.31;;;6.18;100.00
58771;BME280;44539;42.962;1.596;2022-12-24T10:27:07;97213.16;;;6.49;100.00
58771;BME280;44539;42.962;1.596;2022-12-24T10:29:40;97208.78;;;6.58;100.00
58771;BME280;44539;42.962;1.596;2022-12-24T10:34:37;97203.06;;;6.99;100.00
58771;BME280;44539;42.962;1.596;2022-12-24T10:37:06;97210.91;;;7.26;100.00
58771;BME280;44539;42.962;1.596;2022-12-24T10:39:34;97199.47;;;7.44;100.00
58771;BME280;44539;42.962;1.596;2022-12-24T10:42:00;97197.78;;;7.61;100.00
58771;BME280;44539;42.962;1.596;2022-12-24T10:44:29;97197.22;;;7.75;100.00
58771;BME280;44539;42.962;1.596;2022-12-24T10:46:56;97190.63;;;7.79;100.00
58771;BME280;44539;42.962;1.596;2022-12-24T10:49:34;97182.25;;;7.92;100.00
58771;BME280;44539;42.962;1.596;2022-12-24T10:52:12;97185.91;;;8.33;100.00
58771;BME280;44539;42.962;1.596;2022-12-24T10:57:36;97171.94;;;8.57;100.00
58771;BME280;44539;42.962;1.596;2022-12-24T11:00:03;97183.22;;;8.76;100.00
58771;BME280;44539;42.962;1.596;2022-12-24T11:02:36;97174.66;;;9.15;100.00
58771;BME280;44539;42.962;1.596;2022-12-24T11:05:13;97171.84;;;9.33;100.00
58771;BME280;44539;42.962;1.596;2022-12-24T11:08:05;97169.50;;;9.30;100.00
58771;BME280;44539;42.962;1.596;2022-12-24T11:10:40;97164.72;;;9.42;100.00
58771;BME280;44539;42.962;1.596;2022-12-24T11:13:22;97158.38;;;9.67;100.00
58771;BME280;44539;42.962;1.596;2022-12-24T11:15:58;97158.66;;;9.80;100.00
58771;BME280;44539;42.962;1.596;2022-12-24T11:18:24;97157.84;;;9.80;100.00
58771;BME280;44539;42.962;1.596;2022-12-24T11:20:51;97156.81;;;9.89;100.00
58771;BME280;44539;42.962;1.596;2022-12-24T11:23:17;97157.16;;;9.86;100.00
58771;BME280;44539;42.962;1.596;2022-12-24T11:25:48;97148.91;;;10.20;100.00
58771;BME280;44539;42.962;1.596;2022-12-24T11:28:30;97138.72;;;10.40;100.00
58771;BME280;44539;42.962;1.596;2022-12-24T11:33:25;97135.03;;;10.50;100.00
58771;BME280;44539;42.962;1.596;2022-12-24T11:35:53;97127.25;;;10.71;100.00
58771;BME280;44539;42.962;1.596;2022-12-24T11:38:25;97123.47;;;10.66;100.00
58771;BME280;44539;42.962;1.596;2022-12-24T11:41:05;97116.84;;;10.85;100.00
58771;BME280;44539;42.962;1.596;2022-12-24T11:43:38;97119.88;;;11.19;100.00
58771;BME280;44539;42.962;1.596;2022-12-24T11:46:13;97117.72;;;11.38;100.00
58771;BME280;44539;42.962;1.596;2022-12-24T11:48:39;97110.09;;;11.35;100.00
58771;BME280;44539;42.962;1.596;2022-12-24T11:51:08;97110.22;;;11.41;100.00
58771;BME280;44539;42.962;1.596;2022-12-24T11:53:55;97102.31;;;11.33;100.00
58771;BME280;44539;42.962;1.596;2022-12-24T11:56:38;97107.28;;;11.51;100.00
58771;BME280;44539;42.962;1.596;2022-12-24T11:59:32;97098.50;;;11.65;100.00
58771;BME280;44539;42.962;1.596;2022-12-24T12:04:46;97102.44;;;11.70;100.00
58771;BME280;44539;42.962;1.596;2022-12-24T12:07:35;97097.22;;;11.76;100.00
58771;BME280;44539;42.962;1.596;2022-12-24T12:10:06;97094.81;;;11.81;100.00
